Time;durP1;ratioP1;P1;durP2;ratioP2;P2;SDS_P1;SDS_P2;PMS_P1;PMS_P2;Temp;Humidity;BMP_temperature;BMP_pressure;BME280_temperature;BME280_humidity;BME280_pressure;Samples;Min_cycle;Max_cycle;Signal;HPM_P1;HPM_P2
2023/11/01 00:01:04;;;;;;;3.00;2.00;;;;;;;12.74;100.00;99363.41;185318;1233;43910;-68
2023/11/01 00:05:07;;;;;;;2.40;1.70;;;;;;;12.68;100.00;99373.61;185442;1233;44624;-68
2023/11/01 00:09:09;;;;;;;10.80;2.30;;;;;;;12.66;100.00;99377.23;185344;1234;45995;-68
2023/11/01 00:13:14;;;;;;;1.40;1.00;;;;;;;12.62;100.00;99381.63;185494;1234;57063;-67
2023/11/01 00:17:15;;;;;;;2.80;1.10;;;;;;;12.59;100.00;99384.78;185345;1234;45948;-67
2023/11/01 00:21:17;;;;;;;2.60;1.50;;;;;;;12.58;100.00;99383.24;185234;1233;44658;-68
2023/11/01 00:25:20;;;;;;;2.80;1.70;;;;;;;12.61;100.00;99386.20;185498;1236;43571;-67
2023/11/01 00:29:21;;;;;;;2.60;1.50;;;;;;;12.63;100.00;99389.54;185491;1233;43555;-67
2023/11/01 00:33:50;;;;;;;2.50;1.50;;;;;;;12.64;100.00;99392.38;185492;1234;58101;-67
2023/11/01 00:37:53;;;;;;;2.90;1.70;;;;;;;12.64;100.00;99393.14;185376;1233;44425;-67
2023/11/01 00:41:55;;;;;;;9.20;2.20;;;;;;;12.64;100.00;99393.86;185342;1234;45840;-69
2023/11/01 00:45:57;;;;;;;2.10;1.00;;;;;;;12.62;100.00;99393.99;185376;1233;43607;-67
2023/11/01 00:49:59;;;;;;;4.90;1.70;;;;;;;12.64;100.00;99393.96;185326;1234;45942;-67
2023/11/01 00:54:05;;;;;;;8.60;2.00;;;;;;;12.66;100.00;99393.95;185181;1234;58283;-68
2023/11/01 00:58:07;;;;;;;;;;;;;;;12.68;100.00;99391.92;185539;1234;45893;-66
2023/11/01 01:02:09;;;;;;;3.10;1.90;;;;;;;12.70;100.00;99396.73;185468;1232;45850;-67
2023/11/01 01:06:14;;;;;;;7.10;2.20;;;;;;;12.66;100.00;99396.60;185404;1234;45957;-67
2023/11/01 01:10:16;;;;;;;6.40;2.50;;;;;;;12.70;100.00;99398.93;185475;1233;44586;-67
2023/11/01 01:14:19;;;;;;;1.10;0.70;;;;;;;12.70;100.00;99400.86;185382;1233;58266;-68
2023/11/01 01:18:22;;;;;;;3.50;0.90;;;;;;;12.70;100.00;99397.29;185257;1234;46084;-66
2023/11/01 01:26:57;;;;;;;6.00;2.00;;;;;;;12.68;100.00;99398.69;183813;1234;46025;-84
2023/11/01 01:30:59;;;;;;;1.60;1.10;;;;;;;12.70;100.00;99399.77;183421;1234;46087;-84
2023/11/01 01:35:01;;;;;;;1.40;1.00;;;;;;;12.67;100.00;99398.29;183407;1232;58152;-84
2023/11/01 01:39:04;;;;;;;5.60;1.30;;;;;;;12.69;100.00;99401.15;182950;1235;46191;-84
2023/11/01 01:43:31;;;;;;;3.20;0.90;;;;;;;12.71;100.00;99404.66;183410;1232;45930;-84
2023/11/01 01:47:35;;;;;;;2.10;1.50;;;;;;;12.68;100.00;99405.52;182964;1235;45960;-84
2023/11/01 01:51:38;;;;;;;3.50;1.70;;;;;;;12.67;100.00;99405.95;182791;1232;46037;-84
2023/11/01 01:55:41;;;;;;;2.00;1.50;;;;;;;12.67;100.00;99404.48;182575;1232;57328;-84
2023/11/01 01:59:51;;;;;;;2.00;1.10;;;;;;;12.65;100.00;99403.48;182600;1231;46122;-84
2023/11/01 02:03:54;;;;;;;2.20;1.40;;;;;;;12.67;100.00;99401.91;182853;1234;45984;-84
2023/11/01 02:08:49;;;;;;;2.50;1.60;;;;;;;12.66;100.00;99403.58;182963;1231;45985;-85
2023/11/01 02:12:52;;;;;;;1.50;1.20;;;;;;;12.63;100.00;99405.27;183155;1231;45945;-84
2023/11/01 02:16:57;;;;;;;1.20;0.90;;;;;;;12.59;100.00;99400.42;182764;1231;59121;-84
2023/11/01 02:20:59;;;;;;;1.60;1.40;;;;;;;12.60;100.00;99400.90;182685;1232;46001;-84
2023/11/01 02:25:01;;;;;;;0.80;0.70;;;;;;;12.60;100.00;99401.23;182708;1232;46076;-84
2023/11/01 02:29:04;;;;;;;7.20;2.70;;;;;;;12.58;100.00;99407.22;182711;1231;46589;-84
2023/11/01 02:33:28;;;;;;;2.40;1.20;;;;;;;12.58;100.00;99406.41;182863;1232;46493;-84
2023/11/01 02:37:30;;;;;;;2.90;1.60;;;;;;;12.54;100.00;99411.56;182901;1231;58461;-84
2023/11/01 02:41:51;;;;;;;5.30;1.50;;;;;;;12.45;100.00;99413.77;182503;1231;46059;-84
2023/11/01 02:45:53;;;;;;;3.00;1.60;;;;;;;12.37;100.00;99419.59;182792;1231;45908;-84
2023/11/01 02:50:24;;;;;;;10.90;2.80;;;;;;;12.28;100.00;99419.21;182675;1231;46186;-84
2023/11/01 02:54:27;;;;;;;2.10;1.20;;;;;;;12.16;100.00;99421.67;183119;1231;45931;-84
2023/11/01 02:58:30;;;;;;;4.60;1.30;;;;;;;12.06;100.00;99426.65;183283;1231;58484;-84
2023/11/01 03:02:35;;;;;;;1.10;1.00;;;;;;;11.99;100.00;99428.20;182797;1232;46016;-85
2023/11/01 03:06:37;;;;;;;5.30;1.40;;;;;;;11.91;100.00;99430.74;182896;1231;46062;-85
2023/11/01 03:10:43;;;;;;;2.20;1.20;;;;;;;11.86;100.00;99430.91;182589;1233;45941;-84
2023/11/01 03:14:46;;;;;;;2.60;1.20;;;;;;;11.82;100.00;99429.48;182877;1232;46026;-84
2023/11/01 03:18:50;;;;;;;4.30;1.70;;;;;;;11.80;100.00;99438.42;182864;1231;58250;-84
2023/11/01 03:22:52;;;;;;;1.80;1.20;;;;;;;11.77;100.00;99442.42;182756;1232;45972;-84
2023/11/01 03:26:55;;;;;;;2.10;1.50;;;;;;;11.76;100.00;99446.14;182552;1232;46103;-85
2023/11/01 03:30:58;;;;;;;1.80;1.30;;;;;;;11.76;100.00;99442.95;183013;1231;46090;-84
2023/11/01 03:35:01;;;;;;;4.50;1.50;;;;;;;11.75;100.00;99445.83;183109;1230;46058;-84
2023/11/01 03:39:07;;;;;;;3.60;0.90;;;;;;;11.73;100.00;99445.13;182973;1231;57908;-84
2023/11/01 03:43:12;;;;;;;1.60;1.40;;;;;;;11.77;100.00;99447.42;182931;1231;46081;-84
2023/11/01 03:47:14;;;;;;;2.80;1.20;;;;;;;11.78;100.00;99450.83;183006;1231;44320;-84
2023/11/01 03:51:16;;;;;;;1.10;0.90;;;;;;;11.81;100.00;99458.26;183392;1230;45960;-84
2023/11/01 03:55:19;;;;;;;4.20;1.70;;;;;;;11.82;100.00;99459.33;183555;1231;45997;-84
2023/11/01 03:59:23;;;;;;;3.60;1.00;;;;;;;11.81;100.00;99459.98;182847;1231;58145;-84
2023/11/01 04:03:26;;;;;;;2.80;1.70;;;;;;;11.79;100.00;99463.36;183416;1231;45902;-84
2023/11/01 04:07:28;;;;;;;0.80;0.60;;;;;;;11.78;100.00;99466.84;183537;1231;45988;-84
2023/11/01 04:11:30;;;;;;;3.60;0.80;;;;;;;11.79;100.00;99464.80;183698;1231;45888;-84
2023/11/01 04:15:33;;;;;;;4.40;1.60;;;;;;;11.82;100.00;99463.96;183441;1231;45987;-84
2023/11/01 04:19:35;;;;;;;4.80;1.60;;;;;;;11.84;100.00;99461.64;183483;1231;57996;-84
2023/11/01 04:23:37;;;;;;;1.70;1.30;;;;;;;11.80;100.00;99456.84;184003;1231;44734;-85
2023/11/01 04:27:41;;;;;;;1.70;0.90;;;;;;;11.73;100.00;99456.35;183546;1231;43892;-83
2023/11/01 04:31:52;;;;;;;3.40;1.10;;;;;;;11.69;100.00;99458.38;183190;1231;45984;-84
2023/11/01 04:35:54;;;;;;;1.90;1.20;;;;;;;11.73;100.00;99462.61;183492;1231;46047;-84
2023/11/01 04:39:57;;;;;;;4.30;1.20;;;;;;;11.78;100.00;99462.73;183491;1231;59750;-84
2023/11/01 04:43:59;;;;;;;1.80;1.50;;;;;;;11.82;100.00;99464.10;183201;1231;46088;-84
2023/11/01 04:48:02;;;;;;;4.50;1.30;;;;;;;11.89;100.00;99461.03;183031;1230;45976;-83
2023/11/01 04:52:06;;;;;;;3.40;1.70;;;;;;;11.93;100.00;99466.84;182814;1234;45853;-84
2023/11/01 04:56:11;;;;;;;2.70;1.70;;;;;;;11.97;100.00;99467.98;182689;1231;45953;-84
2023/11/01 05:00:16;;;;;;;3.50;1.90;;;;;;;12.02;100.00;99468.20;182733;1232;57377;-84
2023/11/01 05:04:19;;;;;;;3.50;2.20;;;;;;;12.08;100.00;99472.91;182863;1231;45962;-84
2023/11/01 05:08:25;;;;;;;9.10;4.90;;;;;;;12.13;100.00;99477.58;182940;1234;46123;-84
2023/11/01 05:12:28;;;;;;;4.60;3.40;;;;;;;12.21;100.00;99487.33;183218;1231;45984;-84
2023/11/01 05:16:30;;;;;;;3.90;3.50;;;;;;;12.24;100.00;99489.25;182899;1234;46088;-84
2023/11/01 05:20:59;;;;;;;4.00;3.20;;;;;;;12.20;100.00;99480.83;182906;1231;419511;-84
2023/11/01 05:25:01;;;;;;;5.20;2.20;;;;;;;12.16;100.00;99478.36;183634;1230;45982;-84
2023/11/01 05:29:06;;;;;;;4.50;2.30;;;;;;;12.16;100.00;99477.46;183393;1232;46107;-84
2023/11/01 05:33:13;;;;;;;4.30;2.90;;;;;;;12.12;100.00;99481.63;183327;1231;46008;-84
2023/11/01 05:37:15;;;;;;;5.40;2.80;;;;;;;12.06;100.00;99478.35;182900;1231;46078;-84
2023/11/01 05:42:15;;;;;;;2.40;2.00;;;;;;;12.02;100.00;99485.80;182868;1234;57976;-84
2023/11/01 05:46:23;;;;;;;5.10;3.20;;;;;;;12.01;100.00;99493.00;183300;1231;45959;-84
2023/11/01 05:50:25;;;;;;;3.00;2.70;;;;;;;12.02;100.00;99496.98;182708;1231;45995;-84
2023/11/01 05:54:32;;;;;;;5.10;2.20;;;;;;;12.05;100.00;99504.90;183051;1231;46096;-84
2023/11/01 05:58:34;;;;;;;2.60;2.10;;;;;;;12.08;100.00;99504.60;182890;1232;45937;-84
2023/11/01 06:02:39;;;;;;;2.30;2.00;;;;;;;12.10;100.00;99505.83;182834;1231;57846;-83
2023/11/01 06:06:45;;;;;;;3.60;2.40;;;;;;;12.11;100.00;99508.02;182873;1231;45963;-83
2023/11/01 06:10:48;;;;;;;5.00;3.10;;;;;;;12.14;100.00;99516.20;182908;1231;46174;-83
2023/11/01 06:14:52;;;;;;;8.00;3.50;;;;;;;12.17;100.00;99517.79;182674;1232;46080;-83
2023/11/01 06:18:54;;;;;;;5.20;2.90;;;;;;;12.20;100.00;99523.14;182882;1230;45962;-83
2023/11/01 06:22:56;;;;;;;5.10;2.50;;;;;;;12.25;100.00;99524.88;182790;1231;58020;-83
2023/11/01 06:27:00;;;;;;;5.70;2.60;;;;;;;12.31;100.00;99526.83;183202;1231;46442;-84
2023/11/01 06:31:32;;;;;;;5.00;3.40;;;;;;;12.33;100.00;99530.13;182834;1235;46065;-84
2023/11/01 06:35:34;;;;;;;4.80;2.80;;;;;;;12.36;100.00;99534.15;182771;1230;45942;-84
2023/11/01 06:39:37;;;;;;;3.70;2.40;;;;;;;12.37;100.00;99541.16;183258;1231;45886;-84
2023/11/01 06:43:40;;;;;;;3.20;2.60;;;;;;;12.39;100.00;99535.66;183424;1234;58323;-84
2023/11/01 06:47:42;;;;;;;4.60;2.50;;;;;;;12.40;100.00;99538.40;183491;1232;45143;-84
2023/11/01 06:51:45;;;;;;;3.90;2.90;;;;;;;12.42;100.00;99536.95;183390;1233;45963;-84
2023/11/01 06:55:49;;;;;;;7.20;3.10;;;;;;;12.41;100.00;99535.09;183117;1231;46074;-85
2023/11/01 06:59:52;;;;;;;5.80;3.70;;;;;;;12.43;100.00;99536.14;182983;1231;45890;-85
2023/11/01 07:03:54;;;;;;;7.50;3.70;;;;;;;12.51;100.00;99540.30;183318;1231;57151;-84
2023/11/01 07:08:26;;;;;;;9.50;3.50;;;;;;;12.57;100.00;99538.77;182756;1234;44715;-86
2023/11/01 07:12:29;;;;;;;7.30;4.90;;;;;;;12.66;100.00;99545.92;182967;1231;46049;-85
2023/11/01 07:21:36;;;;;;;6.20;3.90;;;;;;;12.89;100.00;99550.69;184156;1231;45973;-85
2023/11/01 07:25:39;;;;;;;6.50;3.70;;;;;;;12.99;100.00;99551.03;183105;1232;57080;-85
2023/11/01 07:30:08;;;;;;;5.20;3.10;;;;;;;13.12;100.00;99550.08;183149;1231;46040;-84
2023/11/01 07:34:10;;;;;;;4.70;3.80;;;;;;;13.28;100.00;99545.74;183208;1231;45812;-84
2023/11/01 07:38:16;;;;;;;4.40;3.50;;;;;;;13.45;100.00;99540.24;182876;1231;46027;-84
2023/11/01 07:42:20;;;;;;;7.10;3.80;;;;;;;13.60;100.00;99540.80;182945;1234;45971;-84
2023/11/01 07:46:24;;;;;;;6.40;3.90;;;;;;;13.77;100.00;99538.84;182735;1231;59628;-85
2023/11/01 07:50:27;;;;;;;4.40;3.10;;;;;;;13.95;100.00;99539.23;182760;1231;45960;-83
2023/11/01 07:54:31;;;;;;;11.70;3.70;;;;;;;14.04;100.00;99537.20;183162;1234;46051;-84
2023/11/01 07:58:34;;;;;;;4.90;3.60;;;;;;;14.10;100.00;99540.17;183173;1235;46154;-83
2023/11/01 08:02:36;;;;;;;4.80;2.80;;;;;;;14.16;100.00;99542.39;183316;1235;45972;-84
2023/11/01 08:06:39;;;;;;;5.30;3.00;;;;;;;14.25;100.00;99547.10;182999;1230;59164;-84
2023/11/01 08:10:42;;;;;;;3.90;2.50;;;;;;;14.34;100.00;99552.74;183020;1231;46074;-84
2023/11/01 08:14:45;;;;;;;4.70;2.70;;;;;;;14.44;100.00;99555.70;182821;1231;45963;-84
2023/11/01 08:18:47;;;;;;;3.70;2.30;;;;;;;14.57;99.85;99556.79;182761;1231;46007;-84
2023/11/01 08:22:51;;;;;;;2.60;2.40;;;;;;;14.69;98.96;99563.20;182671;1231;43983;-84
2023/11/01 08:26:53;;;;;;;4.00;3.30;;;;;;;14.84;97.84;99560.48;183534;1231;59463;-79
2023/11/01 08:30:55;;;;;;;11.30;2.50;;;;;;;15.01;96.66;99559.31;183837;1231;45991;-79
2023/11/01 08:34:57;;;;;;;4.10;2.70;;;;;;;15.06;94.00;99557.16;183866;1232;45946;-81
2023/11/01 08:38:59;;;;;;;2.20;2.00;;;;;;;15.07;94.48;99557.42;183730;1231;45962;-81
2023/11/01 08:43:01;;;;;;;2.30;1.90;;;;;;;15.11;95.56;99556.80;185235;1231;45937;-81
2023/11/01 08:47:07;;;;;;;3.50;2.00;;;;;;;15.16;96.60;99564.80;183371;1231;57969;-82
2023/11/01 08:51:11;;;;;;;4.70;2.80;;;;;;;15.24;96.13;99564.63;183309;1231;44720;-80
2023/11/01 08:55:14;;;;;;;3.90;3.50;;;;;;;15.27;95.19;99567.45;183726;1231;45977;-80
2023/11/01 08:59:16;;;;;;;3.90;2.60;;;;;;;15.30;94.60;99566.23;183732;1231;46008;-82
2023/11/01 09:03:18;;;;;;;4.80;3.30;;;;;;;15.33;95.04;99563.45;184328;1232;45177;-81
2023/11/01 09:07:21;;;;;;;3.10;2.20;;;;;;;15.38;94.72;99561.38;184251;1231;57065;-81
2023/11/01 09:11:25;;;;;;;3.90;1.90;;;;;;;15.50;95.31;99559.05;183870;1236;44075;-81
2023/11/01 09:15:27;;;;;;;3.00;2.20;;;;;;;15.65;95.04;99556.79;183800;1231;45960;-80
2023/11/01 09:19:29;;;;;;;1.20;1.20;;;;;;;15.77;92.42;99559.19;184082;1231;46048;-82
2023/11/01 09:23:30;;;;;;;2.50;2.20;;;;;;;15.85;92.64;99557.31;183728;1234;46091;-82
2023/11/01 09:27:32;;;;;;;4.00;2.90;;;;;;;15.96;93.05;99556.98;184138;1234;58357;-82
2023/11/01 09:31:35;;;;;;;2.40;2.20;;;;;;;16.02;91.85;99555.13;184143;1230;46011;-81
2023/11/01 09:35:37;;;;;;;3.70;2.30;;;;;;;16.10;90.41;99556.83;184782;1234;46135;-80
2023/11/01 09:39:39;;;;;;;4.00;2.00;;;;;;;16.10;90.15;99550.16;183614;1232;44159;-80
2023/11/01 09:43:42;;;;;;;4.10;2.60;;;;;;;16.12;90.58;99545.52;183454;1231;46020;-82
2023/11/01 09:47:44;;;;;;;4.70;3.00;;;;;;;16.17;90.60;99544.91;184410;1231;58647;-84
2023/11/01 09:51:46;;;;;;;2.60;1.90;;;;;;;16.18;90.79;99546.21;184602;1231;46001;-82
2023/11/01 09:55:48;;;;;;;4.00;2.50;;;;;;;16.19;90.55;99540.35;184733;1231;46130;-84
2023/11/01 09:59:51;;;;;;;2.30;2.10;;;;;;;16.26;91.66;99542.98;184458;1236;45377;-83
2023/11/01 10:03:55;;;;;;;1.50;1.30;;;;;;;16.29;89.72;99541.01;184211;1231;45959;-83
2023/11/01 10:07:57;;;;;;;2.50;2.10;;;;;;;16.29;87.90;99539.19;184174;1231;59230;-83
2023/11/01 10:11:59;;;;;;;6.50;1.50;;;;;;;16.29;88.34;99534.36;184400;1231;46041;-84
2023/11/01 10:16:12;;;;;;;2.80;2.50;;;;;;;16.41;88.44;99531.33;184493;1231;45976;-83
2023/11/01 10:20:27;;;;;;;1.90;1.60;;;;;;;16.54;88.46;99525.38;183755;1231;46074;-84
2023/11/01 10:24:29;;;;;;;2.20;1.10;;;;;;;16.72;89.73;99529.34;183447;1231;45956;-84
2023/11/01 10:28:44;;;;;;;2.00;1.60;;;;;;;16.83;87.30;99523.85;183595;1231;58092;-84
2023/11/01 10:32:56;;;;;;;2.30;1.80;;;;;;;16.98;85.89;99516.77;183676;1231;46093;-83
2023/11/01 10:36:59;;;;;;;1.60;1.50;;;;;;;17.32;81.96;99510.86;183472;1231;45989;-84
2023/11/01 10:41:03;;;;;;;1.60;1.40;;;;;;;17.42;78.30;99504.21;183912;1231;46043;-84
2023/11/01 10:45:06;;;;;;;2.20;1.30;;;;;;;17.46;78.49;99498.88;184342;1231;43946;-84
2023/11/01 10:49:12;;;;;;;1.90;1.20;;;;;;;17.48;77.64;99498.31;184257;1231;58175;-84
2023/11/01 10:53:15;;;;;;;2.50;1.80;;;;;;;17.47;78.00;99493.27;183894;1231;46027;-83
2023/11/01 10:57:19;;;;;;;3.00;1.70;;;;;;;17.51;79.78;99490.59;184329;1234;46023;-83
2023/11/01 11:01:37;;;;;;;2.00;1.40;;;;;;;17.46;78.75;99485.65;183430;1231;46168;-84
2023/11/01 11:05:42;;;;;;;8.30;1.70;;;;;;;17.41;78.07;99476.63;183615;1231;46131;-83
2023/11/01 11:09:44;;;;;;;11.50;7.00;;;;;;;17.44;77.83;99471.80;184141;1231;59460;-84
2023/11/01 11:13:49;;;;;;;6.40;4.80;;;;;;;17.43;77.05;99468.86;183423;1231;46087;-84
2023/11/01 11:18:07;;;;;;;5.50;3.40;;;;;;;17.37;78.09;99464.91;183333;1234;46077;-83
2023/11/01 11:22:08;;;;;;;5.10;1.90;;;;;;;17.34;77.43;99458.86;183735;1234;45894;-84
2023/11/01 11:26:12;;;;;;;1.50;1.40;;;;;;;17.32;76.88;99455.02;183704;1235;45961;-83
2023/11/01 11:30:14;;;;;;;2.50;1.20;;;;;;;17.32;76.68;99459.04;185276;1231;58237;-84
2023/11/01 11:34:19;;;;;;;1.80;0.90;;;;;;;17.34;78.44;99458.35;183980;1231;45959;-83
2023/11/01 11:38:35;;;;;;;1.90;1.30;;;;;;;17.29;78.80;99457.84;184332;1231;45880;-84
2023/11/01 11:42:50;;;;;;;8.20;1.90;;;;;;;17.22;79.28;99452.97;183876;1235;46205;-83
2023/11/01 11:46:59;;;;;;;1.20;1.10;;;;;;;17.21;79.19;99447.34;183310;1232;45915;-83
2023/11/01 11:51:04;;;;;;;4.90;2.20;;;;;;;17.20;80.02;99446.79;183653;1231;57831;-83
2023/11/01 11:55:07;;;;;;;4.60;3.70;;;;;;;17.27;79.41;99443.55;183900;1234;45314;-84
2023/11/01 11:59:10;;;;;;;1.50;1.30;;;;;;;17.38;78.88;99439.13;183908;1231;46007;-83
2023/11/01 12:03:23;;;;;;;4.30;2.20;;;;;;;17.39;78.85;99434.19;184403;1235;45978;-84
2023/11/01 12:07:26;;;;;;;3.10;2.60;;;;;;;17.43;81.67;99430.36;184031;1234;44668;-84
2023/11/01 12:11:31;;;;;;;3.40;2.50;;;;;;;17.42;81.40;99423.98;183583;1234;58305;-84
2023/11/01 12:15:42;;;;;;;20.70;13.20;;;;;;;17.42;80.99;99414.14;183873;1232;45979;-84
2023/11/01 12:19:45;;;;;;;4.60;3.60;;;;;;;17.39;80.66;99409.85;184505;1231;46080;-83
2023/11/01 12:23:48;;;;;;;11.20;10.10;;;;;;;17.34;81.72;99410.05;183695;1235;46122;-84
2023/11/01 12:27:51;;;;;;;6.70;4.50;;;;;;;17.23;80.66;99415.93;183857;1232;46177;-84
2023/11/01 12:32:07;;;;;;;2.80;1.80;;;;;;;17.09;80.86;99413.76;183691;1232;59356;-84
2023/11/01 12:36:09;;;;;;;2.20;1.50;;;;;;;17.03;81.09;99410.55;183706;1236;45987;-84
2023/11/01 12:40:16;;;;;;;12.30;8.00;;;;;;;16.95;81.76;99408.96;183311;1231;45969;-84
2023/11/01 12:44:22;;;;;;;22.90;12.80;;;;;;;16.85;82.67;99406.39;183310;1232;44278;-84
2023/11/01 12:48:24;;;;;;;8.00;3.50;;;;;;;16.77;83.54;99408.25;183840;1235;45985;-84
2023/11/01 12:52:26;;;;;;;8.00;4.20;;;;;;;16.63;82.45;99409.40;183986;1230;59854;-84
2023/11/01 12:56:28;;;;;;;23.70;11.40;;;;;;;16.53;82.06;99406.66;183424;1232;46041;-84
2023/11/01 13:00:30;;;;;;;9.80;6.50;;;;;;;16.44;83.62;99406.88;183308;1232;45898;-84
2023/11/01 13:04:32;;;;;;;7.30;3.30;;;;;;;16.43;84.39;99405.88;183275;1232;45955;-84
2023/11/01 13:08:34;;;;;;;12.40;7.20;;;;;;;16.36;85.13;99402.77;183965;1237;45972;-84
2023/11/01 13:12:38;;;;;;;5.90;3.60;;;;;;;16.35;85.37;99398.66;183429;1232;59393;-84
2023/11/01 13:16:42;;;;;;;7.50;2.70;;;;;;;16.31;85.21;99397.80;183359;1232;46080;-83
2023/11/01 13:20:44;;;;;;;6.90;2.70;;;;;;;16.33;85.29;99393.89;183251;1234;46024;-84
2023/11/01 13:24:46;;;;;;;3.20;1.50;;;;;;;16.30;86.15;99390.49;183379;1232;46070;-84
2023/11/01 13:28:48;;;;;;;3.80;1.70;;;;;;;16.23;85.92;99385.91;183371;1234;45940;-83
2023/11/01 13:32:50;;;;;;;2.70;2.20;;;;;;;16.13;86.63;99385.81;183604;1235;58082;-81
2023/11/01 13:36:52;;;;;;;4.00;2.30;;;;;;;16.00;86.70;99381.45;183136;1232;45956;-81
2023/11/01 13:40:57;;;;;;;4.50;2.50;;;;;;;15.96;88.14;99379.82;183634;1232;45926;-83
2023/11/01 13:45:00;;;;;;;2.10;1.70;;;;;;;15.93;88.79;99379.38;183927;1232;46065;-83
2023/11/01 13:49:03;;;;;;;3.60;2.00;;;;;;;15.92;88.35;99375.60;183770;1234;46049;-83
2023/11/01 13:53:05;;;;;;;1.60;1.10;;;;;;;15.85;88.58;99370.75;183830;1232;59397;-83
2023/11/01 13:57:07;;;;;;;1.70;1.40;;;;;;;15.84;89.45;99368.61;183596;1232;45966;-83
2023/11/01 14:01:09;;;;;;;3.50;1.80;;;;;;;15.83;89.37;99367.46;183751;1230;46192;-84
2023/11/01 14:05:11;;;;;;;3.00;2.20;;;;;;;15.89;89.77;99361.14;183528;1232;46146;-84
2023/11/01 14:09:16;;;;;;;4.50;2.40;;;;;;;15.91;89.99;99356.48;183765;1232;45853;-84
2023/11/01 14:13:18;;;;;;;2.80;1.90;;;;;;;15.90;90.17;99345.45;183517;1234;58177;-83
2023/11/01 14:17:20;;;;;;;3.40;1.40;;;;;;;15.86;89.90;99336.77;183450;1234;46097;-83
2023/11/01 14:21:25;;;;;;;4.70;2.30;;;;;;;15.76;90.48;99332.79;183547;1232;46071;-84
2023/11/01 14:25:27;;;;;;;2.60;1.70;;;;;;;15.65;91.28;99330.86;184079;1231;46062;-84
2023/11/01 14:29:29;;;;;;;6.00;3.10;;;;;;;15.56;90.36;99329.94;183734;1234;46061;-83
2023/11/01 14:33:35;;;;;;;5.40;2.30;;;;;;;15.53;91.06;99331.17;183574;1231;58292;-83
2023/11/01 14:37:41;;;;;;;5.40;2.30;;;;;;;15.46;91.25;99325.40;183491;1234;43965;-83
2023/11/01 14:41:43;;;;;;;2.10;1.70;;;;;;;15.46;91.75;99325.60;183390;1232;46032;-83
2023/11/01 14:45:45;;;;;;;8.20;5.50;;;;;;;15.42;92.57;99325.14;183491;1232;44610;-83
2023/11/01 14:49:47;;;;;;;11.50;10.30;;;;;;;15.38;94.85;99316.02;183540;1231;45576;-83
2023/11/01 14:53:49;;;;;;;6.70;5.20;;;;;;;15.26;96.34;99313.48;183339;1234;57483;-83
2023/11/01 14:57:51;;;;;;;5.20;4.70;;;;;;;15.15;97.22;99313.35;183107;1232;45998;-82
2023/11/01 15:01:56;;;;;;;5.10;4.10;;;;;;;15.08;97.60;99311.45;183648;1234;46068;-83
2023/11/01 15:05:58;;;;;;;5.70;3.60;;;;;;;14.95;98.64;99314.36;183552;1232;46065;-83
2023/11/01 15:10:00;;;;;;;5.10;3.30;;;;;;;14.86;99.47;99310.98;183029;1231;46004;-83
2023/11/01 15:14:02;;;;;;;4.50;2.60;;;;;;;14.81;99.35;99311.44;183413;1232;58080;-83
2023/11/01 15:18:04;;;;;;;5.70;3.50;;;;;;;14.72;100.00;99315.73;183048;1232;46277;-83
2023/11/01 15:22:06;;;;;;;5.00;3.70;;;;;;;14.67;100.00;99316.59;183258;1231;45175;-83
2023/11/01 15:26:09;;;;;;;5.50;4.30;;;;;;;14.57;100.00;99312.89;183399;1234;46138;-83
2023/11/01 15:30:14;;;;;;;7.40;4.10;;;;;;;14.42;100.00;99309.09;184240;1232;46027;-83
2023/11/01 15:34:16;;;;;;;5.80;2.80;;;;;;;14.39;100.00;99307.30;184031;1236;57916;-83
2023/11/01 15:38:23;;;;;;;5.70;3.50;;;;;;;14.31;100.00;99309.06;183317;1235;45967;-83
2023/11/01 15:42:25;;;;;;;6.80;4.10;;;;;;;14.20;100.00;99309.19;183201;1232;46094;-83
2023/11/01 15:46:27;;;;;;;8.10;5.00;;;;;;;14.09;100.00;99304.84;183192;1232;45980;-83
2023/11/01 15:50:29;;;;;;;7.20;5.10;;;;;;;14.08;100.00;99299.91;183549;1231;45946;-82
2023/11/01 15:54:32;;;;;;;7.60;5.00;;;;;;;13.98;100.00;99297.74;183272;1231;59346;-83
2023/11/01 15:58:35;;;;;;;10.40;6.90;;;;;;;13.82;100.00;99300.42;183064;1236;46043;-83
2023/11/01 16:02:37;;;;;;;6.20;5.10;;;;;;;13.70;100.00;99305.13;183541;1234;45809;-83
2023/11/01 16:06:39;;;;;;;9.80;5.90;;;;;;;13.59;100.00;99303.35;183215;1232;45991;-82
2023/11/01 16:10:41;;;;;;;9.70;7.70;;;;;;;13.46;100.00;99296.18;183500;1231;46090;-82
2023/11/01 16:14:43;;;;;;;14.40;8.00;;;;;;;13.42;100.00;99295.90;183555;1232;59418;-83
2023/11/01 16:18:45;;;;;;;15.50;10.20;;;;;;;13.35;100.00;99292.77;183186;1230;46089;-83
2023/11/01 16:22:47;;;;;;;14.10;8.90;;;;;;;13.31;100.00;99288.82;183237;1234;46192;-82
2023/11/01 16:26:50;;;;;;;12.00;9.00;;;;;;;13.14;100.00;99284.78;183342;1232;46109;-83
2023/11/01 16:30:54;;;;;;;10.30;7.00;;;;;;;13.00;100.00;99287.07;183191;1231;46000;-83
2023/11/01 16:34:56;;;;;;;8.50;5.90;;;;;;;12.92;100.00;99284.83;183115;1234;57917;-83
2023/11/01 16:38:58;;;;;;;7.80;5.70;;;;;;;12.90;100.00;99282.42;184036;1232;45970;-82
2023/11/01 16:43:00;;;;;;;7.70;6.40;;;;;;;12.85;100.00;99287.42;185433;1230;46077;-81
2023/11/01 16:47:02;;;;;;;7.10;5.20;;;;;;;12.80;100.00;99287.55;184970;1232;46023;-81
2023/11/01 16:51:04;;;;;;;12.30;6.50;;;;;;;12.77;100.00;99289.35;184597;1230;44652;-81
2023/11/01 16:55:07;;;;;;;7.30;6.60;;;;;;;12.78;100.00;99286.71;184145;1234;59425;-81
2023/11/01 16:59:08;;;;;;;25.60;16.80;;;;;;;12.73;100.00;99286.73;184014;1231;45961;-81
2023/11/01 17:03:10;;;;;;;33.00;22.00;;;;;;;12.62;100.00;99284.65;184318;1234;46049;-80
2023/11/01 17:28:23;;;;;;;26.60;18.60;;;;;;;12.27;100.00;99274.78;184384;1235;46881;-84
2023/11/01 17:32:25;;;;;;;17.80;11.40;;;;;;;12.25;100.00;99267.20;183265;1233;43943;-84
2023/11/01 17:36:28;;;;;;;21.40;14.10;;;;;;;12.24;100.00;99267.14;182601;1232;46016;-85
2023/11/01 17:40:33;;;;;;;16.60;14.50;;;;;;;12.24;100.00;99269.59;183314;1234;46008;-85
2023/11/01 17:44:37;;;;;;;15.20;10.70;;;;;;;12.22;100.00;99266.67;182604;1234;46075;-84
2023/11/01 17:48:39;;;;;;;12.40;8.90;;;;;;;12.15;100.00;99258.45;183195;1234;58186;-85
2023/11/01 17:52:42;;;;;;;12.90;8.20;;;;;;;12.09;100.00;99253.79;183040;1236;45935;-84
2023/11/01 17:56:44;;;;;;;13.40;8.30;;;;;;;12.01;100.00;99255.75;182595;1234;45932;-84
2023/11/01 18:00:47;;;;;;;13.70;10.20;;;;;;;11.90;100.00;99253.89;183257;1234;46076;-85
2023/11/01 18:04:50;;;;;;;16.40;13.10;;;;;;;11.81;100.00;99248.76;183955;1234;46405;-83
2023/11/01 18:08:52;;;;;;;19.50;15.30;;;;;;;11.80;100.00;99246.78;182733;1233;60212;-85
2023/11/01 18:12:56;;;;;;;35.50;17.60;;;;;;;11.79;100.00;99243.09;183153;1233;45635;-85
2023/11/01 18:16:58;;;;;;;20.70;12.60;;;;;;;11.76;100.00;99242.86;183057;1233;45957;-85
2023/11/01 18:21:18;;;;;;;17.30;13.00;;;;;;;11.77;100.00;99244.40;183612;1234;45999;-84
2023/11/01 18:25:29;;;;;;;13.60;10.40;;;;;;;11.73;100.00;99241.62;182987;1236;46106;-86
2023/11/01 18:29:34;;;;;;;28.50;13.30;;;;;;;11.66;100.00;99239.46;182552;1233;58746;-84
2023/11/01 18:33:37;;;;;;;21.90;13.50;;;;;;;11.60;100.00;99242.27;183551;1236;46034;-84
2023/11/01 18:37:40;;;;;;;26.80;16.40;;;;;;;11.57;100.00;99246.25;182832;1236;45957;-84
2023/11/01 18:41:43;;;;;;;22.90;14.70;;;;;;;11.53;100.00;99238.68;183004;1234;45928;-85
2023/11/01 18:45:49;;;;;;;17.10;12.20;;;;;;;11.48;100.00;99233.13;183120;1236;46083;-85
2023/11/01 18:49:59;;;;;;;14.20;11.70;;;;;;;11.46;100.00;99232.86;183332;1233;59338;-84
2023/11/01 18:54:03;;;;;;;12.40;9.60;;;;;;;11.40;100.00;99222.36;183561;1233;46105;-84
2023/11/01 18:58:06;;;;;;;18.00;11.60;;;;;;;11.33;100.00;99223.33;183541;1233;45093;-84
2023/11/01 19:02:29;;;;;;;17.20;11.50;;;;;;;11.26;100.00;99222.95;183083;1232;45986;-83
2023/11/01 19:06:31;;;;;;;13.40;9.10;;;;;;;11.27;100.00;99225.96;184175;1233;43977;-83
2023/11/01 19:10:36;;;;;;;14.00;9.60;;;;;;;11.26;100.00;99230.73;183566;1236;57958;-83
2023/11/01 19:14:39;;;;;;;14.90;9.30;;;;;;;11.22;100.00;99232.55;183683;1236;46112;-82
2023/11/01 19:18:45;;;;;;;13.30;9.90;;;;;;;11.23;100.00;99233.91;183211;1233;45976;-83